Terminal Aerodrome Forecast
Issued by NWS

Home | Current Version | Previous Version | Text Only | Print | Product List | Glossary On
Versions: 1 2 3 4 5 6 7 8 9 10 11 12
932
FTUS44 KLIX 252320
TAFMCB
TAF
KMCB 252320Z 2600/2624 05005KT P6SM SCT080
      TEMPO 2610/2613 4SM BR SCT035
     FM261400 VRB03KT P6SM SCT035
     FM261800 11004KT P6SM BKN040 PROB30 2620/2624 4SM TSRA
      OVC025CB=

USA.gov is the U.S. government's official web portal to all federal, state and local government web resources and services.